Time;durP1;ratioP1;P1;durP2;ratioP2;P2;SDS_P1;SDS_P2;PMS_P1;PMS_P2;Temp;Humidity;BMP_temperature;BMP_pressure;BME280_temperature;BME280_humidity;BME280_pressure;Samples;Min_cycle;Max_cycle;Signal;HPM_P1;HPM_P2
2022/10/08 00:00:10;;;;;;;;;;;19.10;58.20;;;;;;5052844;28;19967;-78
2022/10/08 00:02:35;;;;;;;;;;;19.00;58.10;;;;;;5032179;28;20003;-84
2022/10/08 00:05:01;;;;;;;;;;;19.00;58.10;;;;;;5033845;28;19917;-84
2022/10/08 00:07:26;;;;;;;;;;;19.00;58.20;;;;;;5032732;28;20285;-84
2022/10/08 00:09:52;;;;;;;;;;;19.00;58.20;;;;;;5032515;28;19983;-84
2022/10/08 00:12:17;;;;;;;;;;;19.00;58.10;;;;;;5032721;28;19921;-83
2022/10/08 00:14:43;;;;;;;;;;;19.00;58.10;;;;;;5033531;28;19921;-81
2022/10/08 00:17:08;;;;;;;;;;;19.00;58.20;;;;;;5048018;28;19971;-81
2022/10/08 00:19:34;;;;;;;;;;;19.00;58.20;;;;;;5032211;28;19944;-79
2022/10/08 00:21:59;;;;;;;;;;;19.00;58.20;;;;;;5049098;28;20015;-78
2022/10/08 00:24:25;;;;;;;;;;;19.00;58.20;;;;;;5048766;28;20398;-78
2022/10/08 00:26:51;;;;;;;;;;;19.00;58.20;;;;;;5033509;28;20292;-78
2022/10/08 00:29:18;;;;;;;;;;;19.00;58.20;;;;;;5032087;28;19924;-77
2022/10/08 00:31:45;;;;;;;;;;;19.00;58.20;;;;;;5048583;28;19921;-77
2022/10/08 00:34:12;;;;;;;;;;;19.00;58.20;;;;;;5031929;28;19921;-78
2022/10/08 00:36:39;;;;;;;;;;;19.00;58.20;;;;;;5048763;28;19917;-77
2022/10/08 00:39:06;;;;;;;;;;;19.00;58.30;;;;;;5048872;28;20261;-77
2022/10/08 00:41:33;;;;;;;;;;;19.00;58.30;;;;;;5031722;28;19970;-78
2022/10/08 00:44:03;;;;;;;;;;;19.00;58.30;;;;;;5032151;28;20257;-78
2022/10/08 00:46:34;;;;;;;;;;;19.00;58.30;;;;;;5031997;28;19925;-77
2022/10/08 00:51:44;;;;;;;;;;;18.90;58.30;;;;;;5110224;27;20367;-75
2022/10/08 00:54:11;;;;;;;;;;;18.90;58.30;;;;;;5109017;28;19916;-75
2022/10/08 00:56:37;;;;;;;;;;;18.90;58.30;;;;;;5109184;28;19916;-75
2022/10/08 00:59:03;;;;;;;;;;;19.00;58.40;;;;;;5109272;28;20244;-76
2022/10/08 01:01:28;;;;;;;;;;;18.90;58.30;;;;;;5110159;28;19920;-76
2022/10/08 01:03:54;;;;;;;;;;;18.90;58.40;;;;;;5110097;28;20029;-75
2022/10/08 01:06:25;;;;;;;;;;;18.90;58.40;;;;;;5143098;27;19934;-76
2022/10/08 01:08:56;;;;;;;;;;;18.90;58.40;;;;;;5110014;28;20374;-75
2022/10/08 01:16:48;;;;;;;;;;;18.90;58.50;;;;;;5089864;28;19935;-75
2022/10/08 01:19:24;;;;;;;;;;;18.90;58.50;;;;;;5088726;28;19924;-74
2022/10/08 01:22:05;;;;;;;;;;;18.90;58.50;;;;;;5088862;28;19960;-75
2022/10/08 01:27:49;;;;;;;;;;;18.90;58.50;;;;;;5088144;28;20007;-75
2022/10/08 01:30:16;;;;;;;;;;;18.80;58.50;;;;;;5088506;28;19932;-75
2022/10/08 01:32:45;;;;;;;;;;;18.90;58.60;;;;;;5088452;28;20465;-75
2022/10/08 01:35:13;;;;;;;;;;;18.90;58.60;;;;;;5088401;28;19928;-75
2022/10/08 01:37:40;;;;;;;;;;;18.90;58.60;;;;;;5088514;28;19916;-74
2022/10/08 01:40:08;;;;;;;;;;;18.90;58.70;;;;;;5089578;28;19961;-75
2022/10/08 01:42:35;;;;;;;;;;;18.90;58.70;;;;;;5089613;28;19920;-75
2022/10/08 01:45:03;;;;;;;;;;;18.90;58.70;;;;;;5088565;28;19916;-75
2022/10/08 01:47:29;;;;;;;;;;;18.90;58.70;;;;;;5088118;28;19916;-75
2022/10/08 01:52:39;;;;;;;;;;;18.90;58.80;;;;;;5127575;27;1866622;-73
2022/10/08 01:55:09;;;;;;;;;;;18.80;58.70;;;;;;5174800;27;19983;-75
2022/10/08 01:57:35;;;;;;;;;;;18.90;58.80;;;;;;5174727;27;19918;-75
2022/10/08 02:00:07;;;;;;;;;;;18.80;58.80;;;;;;5174800;27;19914;-75
2022/10/08 02:02:32;;;;;;;;;;;18.90;58.80;;;;;;5193220;27;19918;-75
2022/10/08 02:04:58;;;;;;;;;;;18.90;58.80;;;;;;5174535;27;20361;-75
2022/10/08 02:07:27;;;;;;;;;;;18.80;58.80;;;;;;5174336;27;20437;-76
2022/10/08 02:10:13;;;;;;;;;;;18.90;58.80;;;;;;5193149;27;19914;-72
2022/10/08 02:12:39;;;;;;;;;;;18.80;58.80;;;;;;5174310;27;20376;-75
2022/10/08 02:15:06;;;;;;;;;;;18.80;58.80;;;;;;5193348;27;19921;-75
2022/10/08 02:17:52;;;;;;;;;;;18.80;59.60;;;;;;5173985;27;19915;-76
2022/10/08 02:20:20;;;;;;;;;;;18.90;58.90;;;;;;5173754;27;19922;-75
2022/10/08 02:22:51;;;;;;;;;;;18.80;59.60;;;;;;5174300;27;19914;-75
2022/10/08 02:30:42;;;;;;;;;;;18.80;58.90;;;;;;5089846;28;19908;-74
2022/10/08 02:33:10;;;;;;;;;;;18.80;58.90;;;;;;5088672;28;19922;-73
2022/10/08 02:35:38;;;;;;;;;;;18.80;58.90;;;;;;5088676;28;20368;-74
2022/10/08 02:38:13;;;;;;;;;;;18.90;59.00;;;;;;5088638;28;20378;-75
2022/10/08 02:40:41;;;;;;;;;;;18.80;59.00;;;;;;5089612;28;20325;-75
2022/10/08 02:43:10;;;;;;;;;;;18.80;59.00;;;;;;5088486;28;19964;-75
2022/10/08 02:45:39;;;;;;;;;;;18.80;59.00;;;;;;5088832;28;19916;-74
2022/10/08 02:48:07;;;;;;;;;;;18.80;59.10;;;;;;5105364;28;19916;-74
2022/10/08 02:50:35;;;;;;;;;;;18.80;59.00;;;;;;5088606;28;20256;-75
2022/10/08 02:53:00;;;;;;;;;;;18.80;59.10;;;;;;5089632;28;19916;-73
2022/10/08 02:55:31;;;;;;;;;;;18.80;59.10;;;;;;5088178;28;19920;-73
2022/10/08 02:58:00;;;;;;;;;;;18.80;59.00;;;;;;5089512;28;19920;-74
2022/10/08 03:00:28;;;;;;;;;;;18.80;59.10;;;;;;5089553;28;20280;-75
2022/10/08 03:02:57;;;;;;;;;;;18.80;59.10;;;;;;5089378;28;19958;-75
2022/10/08 03:05:22;;;;;;;;;;;18.80;59.20;;;;;;5088552;28;19916;-75
2022/10/08 03:07:50;;;;;;;;;;;18.80;59.20;;;;;;5089289;28;19923;-74
2022/10/08 03:10:15;;;;;;;;;;;18.80;59.10;;;;;;5087901;28;19924;-75
2022/10/08 03:12:41;;;;;;;;;;;18.70;59.10;;;;;;5089191;28;20444;-73
2022/10/08 03:15:07;;;;;;;;;;;18.70;59.10;;;;;;5087822;28;19916;-75
2022/10/08 03:17:36;;;;;;;;;;;18.70;59.10;;;;;;5089222;28;20324;-75
2022/10/08 03:20:04;;;;;;;;;;;18.70;59.10;;;;;;5088145;28;19920;-75
2022/10/08 03:22:30;;;;;;;;;;;18.70;59.20;;;;;;5088031;28;19966;-75
2022/10/08 03:24:56;;;;;;;;;;;18.70;59.20;;;;;;5088008;28;19972;-74
2022/10/08 03:27:21;;;;;;;;;;;18.70;59.20;;;;;;5087899;28;20015;-75
2022/10/08 03:29:47;;;;;;;;;;;18.70;59.20;;;;;;5087437;28;20321;-72
2022/10/08 03:32:12;;;;;;;;;;;18.70;59.20;;;;;;5087498;28;19917;-75
2022/10/08 03:34:38;;;;;;;;;;;18.70;59.20;;;;;;5088952;28;19917;-75
2022/10/08 03:37:03;;;;;;;;;;;18.70;59.20;;;;;;5088694;28;19923;-75
2022/10/08 03:39:29;;;;;;;;;;;18.70;59.20;;;;;;5088699;28;19916;-76
2022/10/08 03:41:54;;;;;;;;;;;18.70;59.20;;;;;;5074694;28;19939;-74
2022/10/08 03:44:20;;;;;;;;;;;18.60;59.20;;;;;;5073953;28;20267;-75
2022/10/08 03:46:45;;;;;;;;;;;18.70;59.20;;;;;;5073816;28;19916;-75
2022/10/08 03:49:11;;;;;;;;;;;18.60;59.20;;;;;;5073907;28;19963;-75
2022/10/08 03:51:36;;;;;;;;;;;18.70;59.30;;;;;;5073646;28;19981;-75
2022/10/08 03:54:02;;;;;;;;;;;18.70;59.30;;;;;;5073618;28;19916;-75
2022/10/08 03:56:27;;;;;;;;;;;18.70;59.30;;;;;;5073659;28;19923;-75
2022/10/08 03:58:55;;;;;;;;;;;18.60;59.20;;;;;;5057220;28;19942;-75
2022/10/08 04:01:21;;;;;;;;;;;18.70;59.30;;;;;;5073898;28;19917;-75
2022/10/08 04:03:47;;;;;;;;;;;18.70;59.30;;;;;;5073413;28;20003;-74
2022/10/08 04:06:13;;;;;;;;;;;18.60;60.00;;;;;;5073786;28;19978;-74
2022/10/08 04:08:38;;;;;;;;;;;18.60;59.20;;;;;;5073288;28;19920;-74
2022/10/08 04:11:05;;;;;;;;;;;18.60;59.30;;;;;;5073383;28;19921;-75
2022/10/08 04:13:31;;;;;;;;;;;18.60;59.30;;;;;;5073271;28;19923;-73
2022/10/08 04:16:04;;;;;;;;;;;18.60;59.30;;;;;;5074819;28;19916;-76
2022/10/08 04:18:30;;;;;;;;;;;18.60;59.30;;;;;;5073169;28;19923;-75
2022/10/08 04:20:57;;;;;;;;;;;18.60;59.30;;;;;;5074476;28;20006;-75
2022/10/08 04:23:22;;;;;;;;;;;18.60;59.40;;;;;;5074389;28;19916;-76
2022/10/08 04:25:49;;;;;;;;;;;18.60;59.30;;;;;;5073132;28;20077;-74
2022/10/08 04:28:15;;;;;;;;;;;18.60;59.30;;;;;;5074547;28;19970;-75
2022/10/08 04:30:40;;;;;;;;;;;18.60;59.30;;;;;;5076441;28;20363;-75
2022/10/08 04:33:06;;;;;;;;;;;18.60;59.40;;;;;;5094516;28;19923;-75
2022/10/08 04:35:35;;;;;;;;;;;18.60;59.30;;;;;;5076453;28;19927;-75
2022/10/08 04:38:01;;;;;;;;;;;18.60;59.40;;;;;;5076224;28;20014;-75
2022/10/08 04:40:26;;;;;;;;;;;18.60;59.40;;;;;;5076163;28;19989;-73
2022/10/08 04:42:52;;;;;;;;;;;18.50;59.30;;;;;;5076585;28;20057;-76
2022/10/08 04:45:17;;;;;;;;;;;18.50;59.40;;;;;;5076128;28;20367;-75
2022/10/08 04:47:43;;;;;;;;;;;18.60;59.40;;;;;;5075978;28;19923;-75
2022/10/08 04:50:08;;;;;;;;;;;18.60;59.40;;;;;;5075903;28;19927;-75
2022/10/08 04:52:34;;;;;;;;;;;18.60;59.40;;;;;;5075219;28;19916;-76
2022/10/08 04:54:59;;;;;;;;;;;18.50;59.40;;;;;;5075757;28;20425;-73
2022/10/08 04:57:25;;;;;;;;;;;18.50;59.40;;;;;;5076174;28;19919;-75
2022/10/08 04:59:50;;;;;;;;;;;18.50;59.40;;;;;;5076025;28;19962;-75
2022/10/08 05:02:15;;;;;;;;;;;18.50;59.50;;;;;;5094122;28;19968;-76
2022/10/08 05:04:41;;;;;;;;;;;18.50;59.40;;;;;;5093756;28;20023;-73
2022/10/08 05:07:07;;;;;;;;;;;18.50;59.40;;;;;;5093760;28;20010;-75
2022/10/08 05:09:32;;;;;;;;;;;18.50;59.50;;;;;;5075374;28;19927;-75
2022/10/08 05:11:58;;;;;;;;;;;18.50;59.50;;;;;;5093672;28;19920;-74
2022/10/08 05:14:23;;;;;;;;;;;18.50;59.50;;;;;;5075384;28;19916;-75
2022/10/08 05:16:49;;;;;;;;;;;18.50;59.50;;;;;;5075708;28;19916;-75
2022/10/08 05:19:14;;;;;;;;;;;18.50;59.50;;;;;;5093535;28;19923;-75
2022/10/08 05:21:40;;;;;;;;;;;18.50;59.50;;;;;;5075387;28;19970;-74
2022/10/08 05:24:06;;;;;;;;;;;18.50;59.50;;;;;;5075243;28;20002;-76
2022/10/08 05:26:35;;;;;;;;;;;18.50;59.50;;;;;;5093286;28;19916;-76
2022/10/08 05:29:01;;;;;;;;;;;18.50;59.60;;;;;;5075040;28;19928;-76
2022/10/08 05:31:27;;;;;;;;;;;18.50;59.50;;;;;;5093200;28;19916;-74
2022/10/08 05:33:53;;;;;;;;;;;18.50;60.30;;;;;;5092306;28;19939;-76
2022/10/08 05:36:21;;;;;;;;;;;18.50;59.60;;;;;;5075356;28;19916;-75
2022/10/08 05:38:46;;;;;;;;;;;18.50;59.50;;;;;;5091899;28;19916;-75
2022/10/08 05:43:53;;;;;;;;;;;18.50;59.60;;;;;;5110345;27;19908;-75
2022/10/08 05:46:20;;;;;;;;;;;18.50;59.70;;;;;;5143551;27;19939;-75
2022/10/08 05:48:45;;;;;;;;;;;18.50;59.60;;;;;;5108999;28;19926;-76
2022/10/08 05:51:12;;;;;;;;;;;18.50;59.60;;;;;;5108893;28;20003;-76
2022/10/08 05:53:39;;;;;;;;;;;18.50;59.60;;;;;;5109166;28;19938;-76
2022/10/08 05:56:05;;;;;;;;;;;18.50;59.60;;;;;;5143534;27;19922;-76
2022/10/08 05:58:32;;;;;;;;;;;18.40;59.60;;;;;;5109178;28;20367;-76
2022/10/08 06:00:59;;;;;;;;;;;18.40;59.60;;;;;;5108699;28;19916;-76
2022/10/08 06:03:25;;;;;;;;;;;18.40;59.60;;;;;;5108562;28;19920;-76
2022/10/08 06:05:50;;;;;;;;;;;18.40;59.60;;;;;;5108958;28;19961;-76
2022/10/08 06:08:16;;;;;;;;;;;18.40;59.60;;;;;;5109911;28;19916;-76
2022/10/08 06:10:49;;;;;;;;;;;18.40;59.60;;;;;;5108477;28;19923;-76
2022/10/08 06:13:15;;;;;;;;;;;18.40;59.60;;;;;;5108568;28;19934;-76
2022/10/08 06:15:40;;;;;;;;;;;18.40;59.60;;;;;;5108445;28;19916;-77
2022/10/08 06:18:06;;;;;;;;;;;18.40;59.60;;;;;;5108723;28;19915;-76
2022/10/08 06:20:34;;;;;;;;;;;18.40;59.60;;;;;;5109665;28;20294;-76
2022/10/08 06:23:00;;;;;;;;;;;18.40;59.60;;;;;;5108337;28;19920;-74
2022/10/08 06:25:25;;;;;;;;;;;18.40;59.60;;;;;;5108195;28;20287;-76
2022/10/08 06:27:51;;;;;;;;;;;18.40;59.60;;;;;;5108220;28;19916;-76
2022/10/08 06:30:16;;;;;;;;;;;18.40;59.60;;;;;;5108239;28;19916;-76
2022/10/08 06:32:42;;;;;;;;;;;18.40;59.60;;;;;;5109457;28;19920;-76
2022/10/08 06:35:07;;;;;;;;;;;18.30;59.60;;;;;;5108128;28;20000;-76
2022/10/08 06:37:33;;;;;;;;;;;18.30;59.60;;;;;;5142253;27;19916;-76
2022/10/08 06:39:58;;;;;;;;;;;18.40;59.60;;;;;;5108237;28;19916;-76
2022/10/08 06:42:24;;;;;;;;;;;18.30;59.60;;;;;;5107530;28;20393;-76
2022/10/08 06:44:49;;;;;;;;;;;18.30;59.60;;;;;;5109133;28;19916;-76
2022/10/08 06:47:15;;;;;;;;;;;18.30;59.60;;;;;;5142154;27;19950;-76
2022/10/08 06:49:40;;;;;;;;;;;18.30;59.60;;;;;;5107824;28;19969;-74
2022/10/08 06:52:06;;;;;;;;;;;18.30;59.60;;;;;;5107993;28;19969;-76
2022/10/08 06:54:31;;;;;;;;;;;18.30;59.60;;;;;;5098206;28;20351;-77
2022/10/08 06:56:57;;;;;;;;;;;18.30;59.60;;;;;;5095568;28;19968;-76
2022/10/08 06:59:22;;;;;;;;;;;18.30;59.60;;;;;;5094019;28;19922;-77
2022/10/08 07:01:48;;;;;;;;;;;18.30;59.60;;;;;;5128333;27;19920;-76
2022/10/08 07:04:13;;;;;;;;;;;18.30;59.60;;;;;;5094204;28;20355;-75
2022/10/08 07:06:39;;;;;;;;;;;18.30;59.60;;;;;;5093957;28;19961;-76
2022/10/08 07:09:06;;;;;;;;;;;18.30;59.60;;;;;;5094146;28;19923;-76
2022/10/08 07:11:33;;;;;;;;;;;18.30;59.60;;;;;;5093785;28;19917;-76
2022/10/08 07:13:59;;;;;;;;;;;18.30;59.60;;;;;;5093992;28;19916;-76
2022/10/08 07:16:25;;;;;;;;;;;18.30;59.60;;;;;;5076896;28;20456;-76
2022/10/08 07:18:51;;;;;;;;;;;18.30;59.60;;;;;;5093786;28;19969;-76
2022/10/08 07:21:18;;;;;;;;;;;18.30;59.60;;;;;;5094990;28;20338;-75
2022/10/08 07:23:43;;;;;;;;;;;18.30;59.70;;;;;;5093522;28;19970;-73
2022/10/08 07:26:11;;;;;;;;;;;18.30;59.70;;;;;;5093733;28;20326;-76
2022/10/08 07:28:37;;;;;;;;;;;18.30;59.70;;;;;;5094775;28;19969;-76
2022/10/08 07:31:05;;;;;;;;;;;18.30;59.70;;;;;;5092762;28;20219;-76
2022/10/08 07:33:31;;;;;;;;;;;18.20;59.70;;;;;;5092362;28;20005;-74
2022/10/08 07:36:04;;;;;;;;;;;18.30;59.70;;;;;;5090681;28;19943;-75
2022/10/08 07:38:29;;;;;;;;;;;18.20;59.70;;;;;;5087302;28;20018;-75
2022/10/08 07:40:55;;;;;;;;;;;18.20;59.80;;;;;;5092803;28;20027;-75
2022/10/08 07:43:20;;;;;;;;;;;18.30;60.00;;;;;;5093008;28;19920;-74
2022/10/08 07:45:46;;;;;;;;;;;18.20;59.90;;;;;;5093865;28;19920;-74
2022/10/08 07:48:11;;;;;;;;;;;18.20;59.90;;;;;;5092846;28;19916;-74
2022/10/08 07:50:37;;;;;;;;;;;18.30;59.90;;;;;;5094196;28;19923;-77
2022/10/08 07:53:02;;;;;;;;;;;18.30;60.00;;;;;;5093289;28;20263;-74
2022/10/08 07:55:28;;;;;;;;;;;18.30;60.10;;;;;;5092870;28;19916;-73
2022/10/08 07:57:53;;;;;;;;;;;18.30;60.00;;;;;;5094525;28;19916;-74
2022/10/08 08:00:19;;;;;;;;;;;18.20;60.00;;;;;;5093565;28;19925;-74
2022/10/08 08:02:46;;;;;;;;;;;18.30;60.10;;;;;;5092584;28;19931;-74
2022/10/08 08:05:12;;;;;;;;;;;18.30;60.20;;;;;;5093091;28;19917;-74
2022/10/08 08:07:37;;;;;;;;;;;18.30;60.10;;;;;;5091911;28;19920;-74
2022/10/08 08:10:03;;;;;;;;;;;18.30;60.20;;;;;;5092924;28;19920;-74
2022/10/08 08:12:29;;;;;;;;;;;18.20;60.10;;;;;;5092577;28;19920;-67
2022/10/08 08:14:54;;;;;;;;;;;18.30;60.10;;;;;;5092469;28;19927;-74
2022/10/08 08:17:20;;;;;;;;;;;18.30;60.20;;;;;;5092829;28;19946;-74
2022/10/08 08:19:45;;;;;;;;;;;18.30;60.20;;;;;;5092167;28;19920;-74
2022/10/08 08:22:11;;;;;;;;;;;18.30;60.30;;;;;;5092379;28;19924;-74
2022/10/08 08:24:36;;;;;;;;;;;18.20;60.20;;;;;;5093657;28;19920;-74
2022/10/08 08:27:02;;;;;;;;;;;18.30;60.30;;;;;;5092513;28;20311;-74
2022/10/08 08:29:27;;;;;;;;;;;18.30;60.30;;;;;;5093469;28;19920;-74
2022/10/08 08:31:53;;;;;;;;;;;18.30;60.30;;;;;;5092468;28;19977;-74
2022/10/08 08:34:19;;;;;;;;;;;18.30;60.30;;;;;;5092262;28;19920;-74
2022/10/08 08:36:47;;;;;;;;;;;18.20;60.30;;;;;;5090143;28;19924;-74
2022/10/08 08:39:16;;;;;;;;;;;18.30;60.30;;;;;;5089749;28;19920;-76
2022/10/08 08:42:01;;;;;;;;;;;18.30;60.30;;;;;;5091149;28;19927;-74
2022/10/08 08:47:19;;;;;;;;;;;18.20;60.30;;;;;;5090137;28;20386;-75
2022/10/08 08:49:47;;;;;;;;;;;18.30;60.30;;;;;;5087338;28;19947;-68
2022/10/08 08:52:16;;;;;;;;;;;18.30;60.40;;;;;;5083520;28;19927;-75
2022/10/08 08:54:44;;;;;;;;;;;18.30;60.40;;;;;;5070093;28;19921;-76
2022/10/08 09:00:14;;;;;;;;;;;18.30;60.40;;;;;;5110244;27;19912;-73
2022/10/08 09:02:46;;;;;;;;;;;18.30;60.30;;;;;;5109171;28;19946;-73
2022/10/08 09:05:13;;;;;;;;;;;18.30;60.40;;;;;;5108964;28;19924;-74
2022/10/08 09:07:41;;;;;;;;;;;18.30;60.40;;;;;;5110081;28;20264;-74
2022/10/08 09:10:11;;;;;;;;;;;18.30;60.40;;;;;;5108814;28;19967;-74
2022/10/08 09:12:40;;;;;;;;;;;18.30;60.30;;;;;;5108716;28;20113;-74
2022/10/08 09:15:20;;;;;;;;;;;18.30;60.40;;;;;;5109022;28;19920;-74
2022/10/08 09:17:48;;;;;;;;;;;18.30;60.40;;;;;;5107700;28;20506;-73
2022/10/08 09:20:15;;;;;;;;;;;18.30;60.40;;;;;;5107797;28;19946;-75
2022/10/08 09:22:41;;;;;;;;;;;18.30;60.30;;;;;;5134109;27;20349;-74
2022/10/08 09:25:16;;;;;;;;;;;18.30;60.40;;;;;;5108184;28;19920;-67
2022/10/08 09:27:44;;;;;;;;;;;18.30;60.40;;;;;;5105600;28;19969;-75
2022/10/08 09:30:29;;;;;;;;;;;18.30;60.40;;;;;;5109195;28;20200;-74
2022/10/08 09:32:59;;;;;;;;;;;18.30;60.30;;;;;;5106757;28;20398;-79
2022/10/08 09:35:25;;;;;;;;;;;18.30;60.50;;;;;;5108340;28;19959;-75
2022/10/08 09:37:51;;;;;;;;;;;18.20;60.70;;;;;;5106826;28;19931;-77
2022/10/08 09:40:20;;;;;;;;;;;18.30;60.70;;;;;;5126829;27;20292;-80
2022/10/08 09:43:03;;;;;;;;;;;18.30;60.80;;;;;;5105733;28;19920;-81
2022/10/08 09:45:30;;;;;;;;;;;18.40;60.90;;;;;;5102587;28;20014;-78
2022/10/08 09:48:15;;;;;;;;;;;18.30;60.90;;;;;;5107575;28;19920;-79
2022/10/08 09:50:57;;;;;;;;;;;18.40;60.90;;;;;;5107727;28;19927;-75
2022/10/08 09:53:25;;;;;;;;;;;18.40;61.00;;;;;;5107472;28;20002;-78
2022/10/08 09:55:53;;;;;;;;;;;18.40;61.00;;;;;;5105581;28;19945;-75
2022/10/08 09:58:18;;;;;;;;;;;18.40;60.90;;;;;;5114800;28;19930;-80
2022/10/08 10:00:53;;;;;;;;;;;18.40;61.00;;;;;;5110524;28;20286;-68
2022/10/08 10:03:19;;;;;;;;;;;18.40;60.80;;;;;;5110974;28;19927;-74
2022/10/08 10:05:49;;;;;;;;;;;18.40;60.70;;;;;;5128694;27;19919;-71
2022/10/08 10:08:34;;;;;;;;;;;18.40;60.70;;;;;;5110281;28;19924;-73
2022/10/08 10:11:00;;;;;;;;;;;18.40;60.60;;;;;;5116969;28;19993;-83
2022/10/08 10:13:30;;;;;;;;;;;18.40;60.50;;;;;;5096612;28;19920;-70
2022/10/08 10:16:00;;;;;;;;;;;18.40;60.60;;;;;;5096754;28;19920;-76
2022/10/08 10:18:46;;;;;;;;;;;18.40;60.90;;;;;;5096102;28;19924;-76
2022/10/08 10:21:14;;;;;;;;;;;18.40;60.40;;;;;;5096531;28;19972;-76
2022/10/08 10:23:42;;;;;;;;;;;18.40;60.40;;;;;;5114562;28;20325;-75
2022/10/08 10:26:10;;;;;;;;;;;18.40;60.50;;;;;;5096720;28;19920;-73
2022/10/08 10:31:18;;;;;;;;;;;18.50;60.40;;;;;;5126817;27;1881278;-76
2022/10/08 10:33:51;;;;;;;;;;;18.40;60.40;;;;;;5167886;27;20322;-76
2022/10/08 10:36:17;;;;;;;;;;;18.40;60.40;;;;;;5164523;27;19929;-71
2022/10/08 10:38:49;;;;;;;;;;;18.50;60.40;;;;;;5167715;27;19940;-73
2022/10/08 10:43:59;;;;;;;;;;;18.40;60.50;;;;;;5089262;28;19912;-77
2022/10/08 10:49:12;;;;;;;;;;;18.50;60.40;;;;;;5089894;28;19918;-74
2022/10/08 10:51:51;;;;;;;;;;;18.50;60.30;;;;;;5087426;28;19927;-72
2022/10/08 10:57:01;;;;;;;;;;;18.50;60.30;;;;;;5090207;28;19913;-75
2022/10/08 11:04:59;;;;;;;;;;;18.50;60.10;;;;;;5103386;27;19920;-82
2022/10/08 11:07:31;;;;;;;;;;;18.40;60.20;;;;;;5093647;28;20376;-74
2022/10/08 11:10:02;;;;;;;;;;;18.50;60.30;;;;;;5088323;28;19927;-71
2022/10/08 11:23:21;;;;;;;;;;;18.50;59.90;;;;;;5109155;27;19916;-73
2022/10/08 11:34:26;;;;;;;;;;;18.50;59.80;;;;;;5088935;28;19922;-72
2022/10/08 11:37:00;;;;;;;;;;;18.50;59.60;;;;;;5088642;28;20047;-69
2022/10/08 11:39:30;;;;;;;;;;;18.50;59.50;;;;;;5088849;28;19920;-74
2022/10/08 11:44:36;;;;;;;;;;;18.50;59.40;;;;;;5159049;27;20494;-74
2022/10/08 11:47:22;;;;;;;;;;;18.50;59.30;;;;;;5150875;27;20010;-74
2022/10/08 11:49:51;;;;;;;;;;;18.40;59.10;;;;;;5132629;27;20317;-74
2022/10/08 11:52:17;;;;;;;;;;;18.50;59.10;;;;;;5132369;27;20017;-79
2022/10/08 11:54:47;;;;;;;;;;;18.40;59.10;;;;;;5132726;27;19962;-73
2022/10/08 11:57:21;;;;;;;;;;;18.40;58.90;;;;;;5132500;27;19919;-73
2022/10/08 11:59:54;;;;;;;;;;;18.50;59.00;;;;;;5132932;27;19923;-72
2022/10/08 12:02:23;;;;;;;;;;;18.40;59.00;;;;;;5132635;27;20327;-73
2022/10/08 12:04:50;;;;;;;;;;;18.40;59.00;;;;;;5132437;27;19919;-73
2022/10/08 12:21:13;;;;;;;;;;;18.40;58.70;;;;;;5089945;28;19913;-72
2022/10/08 12:23:38;;;;;;;;;;;18.40;58.80;;;;;;5088560;28;20331;-72
2022/10/08 12:28:46;;;;;;;;;;;18.30;58.70;;;;;;5110195;27;19916;-73
2022/10/08 12:31:34;;;;;;;;;;;18.30;58.60;;;;;;5108965;28;19920;-72
2022/10/08 12:34:02;;;;;;;;;;;18.30;58.60;;;;;;5108980;28;20023;-78
2022/10/08 12:36:33;;;;;;;;;;;18.30;58.60;;;;;;5108855;28;19973;-73
2022/10/08 12:41:45;;;;;;;;;;;18.30;58.50;;;;;;5110262;27;19912;-79
2022/10/08 12:47:11;;;;;;;;;;;18.30;58.50;;;;;;5089987;28;20376;-72
2022/10/08 12:49:41;;;;;;;;;;;18.30;58.50;;;;;;5088342;28;19920;-73
2022/10/08 12:52:10;;;;;;;;;;;18.30;58.50;;;;;;5088556;28;19935;-73
2022/10/08 12:54:37;;;;;;;;;;;18.30;58.50;;;;;;5088464;28;19927;-77
2022/10/08 12:57:07;;;;;;;;;;;18.30;58.50;;;;;;5088763;28;19920;-78
2022/10/08 12:59:33;;;;;;;;;;;18.30;58.50;;;;;;5088391;28;19973;-73
2022/10/08 13:01:58;;;;;;;;;;;18.20;58.40;;;;;;5088750;28;19920;-73
2022/10/08 13:04:25;;;;;;;;;;;18.30;58.40;;;;;;5105260;28;19925;-73
2022/10/08 13:06:52;;;;;;;;;;;18.20;58.40;;;;;;5088287;28;20368;-77
2022/10/08 13:11:58;;;;;;;;;;;18.30;58.30;;;;;;5110325;27;19912;-73
2022/10/08 13:14:28;;;;;;;;;;;18.30;58.30;;;;;;5143215;27;19927;-73
2022/10/08 13:16:54;;;;;;;;;;;18.30;58.30;;;;;;5091829;28;19926;-73
2022/10/08 13:19:36;;;;;;;;;;;18.30;58.30;;;;;;5143235;27;19920;-73
2022/10/08 13:24:43;;;;;;;;;;;18.20;58.30;;;;;;5110290;27;19919;-73
2022/10/08 13:27:25;;;;;;;;;;;18.20;58.30;;;;;;5109146;28;19920;-79
2022/10/08 13:29:51;;;;;;;;;;;18.20;58.30;;;;;;5108943;28;19920;-74
2022/10/08 13:32:18;;;;;;;;;;;18.20;58.30;;;;;;5143387;27;19927;-74
2022/10/08 13:34:46;;;;;;;;;;;18.20;58.30;;;;;;5143458;27;19924;-73
2022/10/08 13:37:13;;;;;;;;;;;18.20;58.30;;;;;;5110105;28;20371;-73
2022/10/08 13:39:40;;;;;;;;;;;18.30;58.30;;;;;;5108549;28;19920;-74
2022/10/08 13:42:08;;;;;;;;;;;18.20;58.20;;;;;;5108534;28;19966;-73
2022/10/08 13:44:35;;;;;;;;;;;18.20;58.20;;;;;;5108512;28;19924;-73
2022/10/08 13:47:01;;;;;;;;;;;18.20;58.10;;;;;;5143209;27;19920;-73
2022/10/08 13:49:27;;;;;;;;;;;18.20;58.10;;;;;;5142950;27;19965;-73
2022/10/08 13:51:54;;;;;;;;;;;18.20;58.10;;;;;;5108432;28;19920;-73
2022/10/08 13:54:22;;;;;;;;;;;18.20;58.20;;;;;;5108926;28;20295;-74
2022/10/08 13:56:48;;;;;;;;;;;18.30;58.20;;;;;;5108570;28;19920;-77
2022/10/08 13:59:14;;;;;;;;;;;18.30;58.10;;;;;;5107991;28;19927;-74
2022/10/08 14:01:39;;;;;;;;;;;18.30;58.10;;;;;;5107411;28;19920;-79
2022/10/08 14:04:05;;;;;;;;;;;18.30;58.10;;;;;;5108163;28;19924;-73
2022/10/08 14:06:30;;;;;;;;;;;18.20;58.10;;;;;;5108391;28;19973;-73
2022/10/08 14:08:56;;;;;;;;;;;18.20;58.10;;;;;;5107947;28;19927;-78
2022/10/08 14:11:22;;;;;;;;;;;18.20;58.10;;;;;;5108006;28;19920;-74
2022/10/08 14:13:47;;;;;;;;;;;18.20;58.10;;;;;;5108069;28;19926;-74
2022/10/08 14:16:13;;;;;;;;;;;18.20;58.10;;;;;;5108012;28;19966;-74
2022/10/08 14:18:38;;;;;;;;;;;18.20;58.10;;;;;;5109210;28;19920;-74
2022/10/08 14:21:04;;;;;;;;;;;18.20;58.00;;;;;;5108046;28;19931;-79
2022/10/08 14:23:31;;;;;;;;;;;18.20;58.00;;;;;;5107636;28;19931;-74
2022/10/08 14:25:57;;;;;;;;;;;18.30;58.80;;;;;;5108177;28;20028;-73
2022/10/08 14:28:22;;;;;;;;;;;18.20;58.00;;;;;;5107615;28;20400;-73
2022/10/08 14:30:48;;;;;;;;;;;18.20;58.00;;;;;;5107775;28;19982;-74
2022/10/08 14:33:13;;;;;;;;;;;18.20;58.00;;;;;;5107965;28;19920;-74
2022/10/08 14:35:39;;;;;;;;;;;18.30;58.10;;;;;;5096245;28;19920;-73
2022/10/08 14:38:04;;;;;;;;;;;18.20;58.00;;;;;;5094001;28;19920;-73
2022/10/08 14:40:30;;;;;;;;;;;18.20;58.00;;;;;;5094009;28;19921;-74
2022/10/08 14:42:56;;;;;;;;;;;18.20;58.00;;;;;;5093779;28;19977;-78
2022/10/08 14:45:21;;;;;;;;;;;18.20;57.90;;;;;;5095141;28;19926;-73
2022/10/08 14:47:47;;;;;;;;;;;18.20;57.90;;;;;;5093824;28;19920;-73
2022/10/08 14:50:13;;;;;;;;;;;18.20;57.90;;;;;;5094011;28;19920;-73
2022/10/08 14:52:38;;;;;;;;;;;18.20;57.90;;;;;;5094040;28;19920;-74
2022/10/08 14:55:04;;;;;;;;;;;18.20;57.80;;;;;;5094011;28;19924;-73
2022/10/08 14:57:30;;;;;;;;;;;18.20;57.90;;;;;;5093700;28;19953;-74
2022/10/08 14:59:55;;;;;;;;;;;18.20;57.80;;;;;;5093541;28;19920;-74
2022/10/08 15:02:21;;;;;;;;;;;18.20;57.80;;;;;;5093535;28;19927;-73
2022/10/08 15:04:47;;;;;;;;;;;18.20;57.80;;;;;;5093469;28;19920;-74
2022/10/08 15:07:12;;;;;;;;;;;18.20;57.80;;;;;;5093753;28;19924;-74
2022/10/08 15:09:39;;;;;;;;;;;18.20;57.70;;;;;;5093309;28;19927;-74
2022/10/08 15:12:05;;;;;;;;;;;18.20;57.70;;;;;;5094746;28;20041;-73
2022/10/08 15:14:31;;;;;;;;;;;18.20;57.80;;;;;;5093251;28;20388;-74
2022/10/08 15:16:56;;;;;;;;;;;18.20;57.70;;;;;;5093581;28;19920;-74
2022/10/08 15:19:22;;;;;;;;;;;18.20;57.70;;;;;;5094599;28;19920;-74
2022/10/08 15:21:47;;;;;;;;;;;18.20;57.80;;;;;;5093544;28;20433;-74
2022/10/08 15:24:13;;;;;;;;;;;18.20;57.70;;;;;;5092824;28;19924;-74
2022/10/08 15:26:38;;;;;;;;;;;18.20;57.80;;;;;;5093591;28;19920;-74
2022/10/08 15:29:04;;;;;;;;;;;18.20;57.70;;;;;;5092999;28;20289;-74
2022/10/08 15:31:29;;;;;;;;;;;18.20;57.70;;;;;;5093015;28;19939;-74
2022/10/08 15:33:56;;;;;;;;;;;18.20;57.70;;;;;;5094222;28;19924;-74
2022/10/08 15:39:05;;;;;;;;;;;18.20;58.40;;;;;;5089934;28;19913;-75
2022/10/08 15:41:33;;;;;;;;;;;18.20;57.60;;;;;;5071350;28;19921;-76
2022/10/08 15:44:06;;;;;;;;;;;18.20;57.70;;;;;;5069626;28;19974;-76
2022/10/08 15:46:31;;;;;;;;;;;18.20;57.70;;;;;;5068555;28;19920;-75
2022/10/08 15:48:57;;;;;;;;;;;18.20;57.70;;;;;;5068591;28;19928;-75
2022/10/08 15:51:23;;;;;;;;;;;18.20;57.70;;;;;;5068474;28;19943;-76
2022/10/08 15:53:49;;;;;;;;;;;18.20;57.70;;;;;;5068439;28;19986;-75